Terminal Aerodrome Forecast
Issued by NWS

Current Version | Previous Version | Graphics & Text | Print | Product List | Glossary On
Versions: 1 2 3 4 5 6 7 8 9 10 11 12 13 14 15 16 17 18 19 20 21 22 23 24 25 26 27 28 29 30 31 32 33 34 35 36 37 38 39 40 41 42 43 44 45 46 47 48 49 50
000
FTUS41 KRNK 281127
TAFLWB
TAF
KLWB 281127Z 2812/2912 VRB03KT 5SM -SHRA BR SCT025 OVC060
     FM281500 20003KT P6SM OVC025
     FM282000 25008KT P6SM -SHRA OVC035
     FM290000 VRB03KT P6SM BKN050
     FM290700 25003KT 4SM BR OVC008=

USA.gov is the U.S. government's official web portal to all federal, state and local government web resources and services.